Time,TemperatureF,DewpointF,PressureIn,WindDirection,WindDirectionDegrees,WindSpeedMPH,WindSpeedGustMPH,Humidity,HourlyPrecipIn,Conditions,Clouds,dailyrainin,SoftwareType,DateUTC
2013-05-14 00:04:00,42.8,34.0,30.18,West,264,0.0,1.0,70,0.00,,,0.00,weatherlink.com 1.10,2013-05-14 04:04:00,
2013-05-14 00:19:00,42.1,31.0,30.18,West,264,0.0,1.0,65,0.00,,,0.00,weatherlink.com 1.10,2013-05-14 04:19:00,
2013-05-14 00:34:00,41.6,31.0,30.17,West,264,0.0,0.0,66,0.00,,,0.00,weatherlink.com 1.10,2013-05-14 04:34:00,
2013-05-14 00:49:00,41.4,32.0,30.17,West,264,0.0,0.0,69,0.00,,,0.00,weatherlink.com 1.10,2013-05-14 04:49:00,
2013-05-14 01:04:00,41.5,32.0,30.17,West,264,0.0,1.0,68,0.00,,,0.00,weatherlink.com 1.10,2013-05-14 05:04:00,
2013-05-14 01:19:00,41.4,33.0,30.17,West,264,0.0,0.0,71,0.00,,,0.00,weatherlink.com 1.10,2013-05-14 05:19:00,
2013-05-14 01:34:00,41.4,34.0,30.16,West,264,0.0,0.0,74,0.00,,,0.00,weatherlink.com 1.10,2013-05-14 05:34:00,
2013-05-14 01:49:00,41.4,33.0,30.16,West,264,0.0,0.0,72,0.00,,,0.00,weatherlink.com 1.10,2013-05-14 05:49:00,
2013-05-14 02:04:00,41.5,33.0,30.16,West,264,0.0,0.0,72,0.00,,,0.00,weatherlink.com 1.10,2013-05-14 06:04:00,
2013-05-14 02:19:00,41.7,33.0,30.16,West,264,0.0,1.0,70,0.00,,,0.00,weatherlink.com 1.10,2013-05-14 06:19:00,
2013-05-14 02:35:00,41.8,32.0,30.16,West,264,0.0,0.0,69,0.00,,,0.00,weatherlink.com 1.10,2013-05-14 06:35:00,
2013-05-14 02:50:00,42.1,33.0,30.15,West,264,0.0,1.0,69,0.00,,,0.00,weatherlink.com 1.10,2013-05-14 06:50:00,
2013-05-14 03:05:00,42.4,34.0,30.14,West,264,0.0,0.0,72,0.00,,,0.00,weatherlink.com 1.10,2013-05-14 07:05:00,
2013-05-14 03:20:00,42.4,34.0,30.14,West,264,0.0,1.0,72,0.00,,,0.00,weatherlink.com 1.10,2013-05-14 07:20:00,
2013-05-14 03:35:00,42.7,33.0,30.14,West,264,0.0,1.0,69,0.00,,,0.00,weatherlink.com 1.10,2013-05-14 07:35:00,
2013-05-14 03:50:00,43.1,33.0,30.14,West,264,0.0,1.0,68,0.00,,,0.00,weatherlink.com 1.10,2013-05-14 07:50:00,
2013-05-14 04:05:00,43.2,33.0,30.15,West,264,0.0,0.0,67,0.00,,,0.00,weatherlink.com 1.10,2013-05-14 08:05:00,
2013-05-14 04:20:00,43.2,34.0,30.15,West,264,0.0,1.0,70,0.00,,,0.00,weatherlink.com 1.10,2013-05-14 08:20:00,
2013-05-14 04:35:00,43.2,34.0,30.14,West,264,0.0,1.0,71,0.00,,,0.00,weatherlink.com 1.10,2013-05-14 08:35:00,
2013-05-14 04:50:00,43.0,33.0,30.14,West,264,0.0,2.0,68,0.00,,,0.00,weatherlink.com 1.10,2013-05-14 08:50:00,
2013-05-14 05:05:00,42.9,34.0,30.13,West,262,0.0,3.0,70,0.00,,,0.00,weatherlink.com 1.10,2013-05-14 09:05:00,
2013-05-14 05:20:00,43.0,34.0,30.13,West,262,1.0,2.0,70,0.00,,,0.00,weatherlink.com 1.10,2013-05-14 09:20:00,
2013-05-14 05:35:00,43.3,33.0,30.11,West,264,0.0,2.0,67,0.00,,,0.00,weatherlink.com 1.10,2013-05-14 09:35:00,
2013-05-14 05:50:00,43.6,33.0,30.11,West,264,0.0,1.0,66,0.00,,,0.00,weatherlink.com 1.10,2013-05-14 09:50:00,
2013-05-14 06:05:00,44.0,33.0,30.11,West,264,1.0,1.0,65,0.00,,,0.00,weatherlink.com 1.10,2013-05-14 10:05:00,
2013-05-14 06:20:00,44.2,34.0,30.10,West,264,0.0,2.0,67,0.00,,,0.00,weatherlink.com 1.10,2013-05-14 10:20:00,
2013-05-14 06:35:00,44.7,33.0,30.09,SW,216,3.0,4.0,65,0.00,,,0.00,weatherlink.com 1.10,2013-05-14 10:35:00,
2013-05-14 06:50:00,45.1,33.0,30.09,ENE,71,0.0,4.0,62,0.00,,,0.00,weatherlink.com 1.10,2013-05-14 10:50:00,
2013-05-14 07:05:00,45.8,33.0,30.08,East,79,1.0,4.0,62,0.00,,,0.00,weatherlink.com 1.10,2013-05-14 11:05:00,
2013-05-14 07:20:00,46.2,32.0,30.05,SSE,161,2.0,9.0,59,0.00,,,0.00,weatherlink.com 1.10,2013-05-14 11:20:00,
2013-05-14 07:35:00,47.8,33.0,30.05,East,92,2.0,7.0,58,0.00,,,0.00,weatherlink.com 1.10,2013-05-14 11:35:00,
2013-05-14 07:50:00,49.4,33.0,30.05,SSE,156,3.0,8.0,53,0.00,,,0.00,weatherlink.com 1.10,2013-05-14 11:50:00,
2013-05-14 08:05:00,49.7,33.0,30.06,SSW,213,1.0,5.0,53,0.00,,,0.00,weatherlink.com 1.10,2013-05-14 12:05:00,
2013-05-14 08:20:00,49.5,34.0,30.05,SSE,157,0.0,8.0,56,0.00,,,0.00,weatherlink.com 1.10,2013-05-14 12:20:00,
2013-05-14 08:35:00,49.2,34.0,30.05,SSE,153,6.0,7.0,56,0.00,,,0.00,weatherlink.com 1.10,2013-05-14 12:35:00,
2013-05-14 08:50:00,49.1,34.0,30.05,East,101,1.0,6.0,57,0.00,,,0.00,weatherlink.com 1.10,2013-05-14 12:50:00,
2013-05-14 09:05:00,49.2,35.0,30.03,South,172,0.0,6.0,58,0.00,,,0.00,weatherlink.com 1.10,2013-05-14 13:05:00,
2013-05-14 09:20:00,49.4,35.0,30.02,SE,146,2.0,6.0,59,0.00,,,0.00,weatherlink.com 1.10,2013-05-14 13:20:00,
2013-05-14 09:35:00,49.9,36.0,30.02,SSE,161,3.0,6.0,60,0.00,,,0.00,weatherlink.com 1.10,2013-05-14 13:35:00,
2013-05-14 09:50:00,51.0,37.0,30.01,SSE,150,0.0,5.0,60,0.00,,,0.00,weatherlink.com 1.10,2013-05-14 13:50:00,
2013-05-14 10:05:00,52.3,38.0,30.00,SE,140,3.0,7.0,58,0.00,,,0.00,weatherlink.com 1.10,2013-05-14 14:05:00,
2013-05-14 10:21:00,54.6,39.0,29.99,SSE,163,2.0,6.0,57,0.00,,,0.00,weatherlink.com 1.10,2013-05-14 14:21:00,
2013-05-14 10:36:00,56.8,39.0,29.97,SSE,159,6.0,9.0,52,0.00,,,0.00,weatherlink.com 1.10,2013-05-14 14:36:00,
2013-05-14 10:51:00,57.2,40.0,29.96,SSE,162,6.0,9.0,54,0.00,,,0.00,weatherlink.com 1.10,2013-05-14 14:51:00,
2013-05-14 11:06:00,58.3,40.0,29.95,South,171,5.0,12.0,51,0.00,,,0.00,weatherlink.com 1.10,2013-05-14 15:06:00,
2013-05-14 11:21:00,60.0,40.0,29.95,SSE,164,3.0,8.0,48,0.00,,,0.00,weatherlink.com 1.10,2013-05-14 15:21:00,
2013-05-14 11:36:00,61.8,42.0,29.94,ESE,111,8.0,9.0,49,0.00,,,0.00,weatherlink.com 1.10,2013-05-14 15:36:00,
2013-05-14 11:51:00,63.1,43.0,29.94,South,190,3.0,13.0,49,0.00,,,0.00,weatherlink.com 1.10,2013-05-14 15:51:00,
2013-05-14 12:06:00,63.6,43.0,29.93,South,169,1.0,9.0,47,0.00,,,0.00,weatherlink.com 1.10,2013-05-14 16:06:00,
2013-05-14 12:21:00,64.8,43.0,29.92,SSE,162,0.0,8.0,46,0.00,,,0.00,weatherlink.com 1.10,2013-05-14 16:21:00,
2013-05-14 12:36:00,64.7,44.0,29.93,SSW,207,0.0,12.0,47,0.00,,,0.00,weatherlink.com 1.10,2013-05-14 16:36:00,
2013-05-14 12:51:00,65.8,46.0,29.92,SE,139,1.0,9.0,49,0.00,,,0.00,weatherlink.com 1.10,2013-05-14 16:51:00,
2013-05-14 13:06:00,67.5,45.0,29.93,SSE,148,5.0,11.0,44,0.00,,,0.00,weatherlink.com 1.10,2013-05-14 17:06:00,
2013-05-14 13:21:00,68.3,47.0,29.91,East,90,0.0,6.0,46,0.00,,,0.00,weatherlink.com 1.10,2013-05-14 17:21:00,
2013-05-14 13:36:00,69.3,47.0,29.91,West,261,2.0,9.0,45,0.00,,,0.00,weatherlink.com 1.10,2013-05-14 17:36:00,
2013-05-14 13:51:00,70.1,48.0,29.90,NW,307,2.0,7.0,46,0.00,,,0.00,weatherlink.com 1.10,2013-05-14 17:51:00,
2013-05-14 14:06:00,71.2,47.0,29.89,NNE,14,2.0,8.0,43,0.00,,,0.00,weatherlink.com 1.10,2013-05-14 18:06:00,
2013-05-14 14:21:00,72.1,51.0,29.88,East,95,0.0,7.0,47,0.00,,,0.00,weatherlink.com 1.10,2013-05-14 18:21:00,
2013-05-14 14:36:00,73.5,49.0,29.87,South,183,2.0,5.0,42,0.00,,,0.00,weatherlink.com 1.10,2013-05-14 18:36:00,
2013-05-14 14:52:00,74.4,52.0,29.87,WNW,301,0.0,6.0,45,0.00,,,0.00,weatherlink.com 1.10,2013-05-14 18:52:00,
2013-05-14 15:07:00,74.0,51.0,29.86,West,270,0.0,7.0,44,0.00,,,0.00,weatherlink.com 1.10,2013-05-14 19:07:00,
2013-05-14 15:22:00,74.9,50.0,29.86,WNW,286,0.0,9.0,42,0.00,,,0.00,weatherlink.com 1.10,2013-05-14 19:22:00,
2013-05-14 15:37:00,75.5,51.0,29.85,SW,233,2.0,6.0,42,0.00,,,0.00,weatherlink.com 1.10,2013-05-14 19:37:00,
2013-05-14 15:52:00,76.2,54.0,29.85,WSW,238,1.0,8.0,46,0.00,,,0.00,weatherlink.com 1.10,2013-05-14 19:52:00,
2013-05-14 16:07:00,76.5,52.0,29.85,SSW,207,1.0,13.0,42,0.00,,,0.00,weatherlink.com 1.10,2013-05-14 20:07:00,
2013-05-14 16:22:00,76.8,52.0,29.84,SE,140,0.0,6.0,42,0.00,,,0.00,weatherlink.com 1.10,2013-05-14 20:22:00,
2013-05-14 16:37:00,77.2,53.0,29.84,WNW,288,0.0,7.0,43,0.00,,,0.00,weatherlink.com 1.10,2013-05-14 20:37:00,
2013-05-14 16:52:00,77.6,54.0,29.84,WNW,298,3.0,6.0,44,0.00,,,0.00,weatherlink.com 1.10,2013-05-14 20:52:00,
2013-05-14 17:07:00,75.1,52.0,29.85,NW,311,3.0,6.0,45,0.00,,,0.00,weatherlink.com 1.10,2013-05-14 21:07:00,
2013-05-14 17:22:00,74.2,53.0,29.84,WNW,290,3.0,5.0,48,0.00,,,0.00,weatherlink.com 1.10,2013-05-14 21:22:00,
2013-05-14 17:37:00,73.7,53.0,29.84,WNW,286,0.0,5.0,48,0.00,,,0.00,weatherlink.com 1.10,2013-05-14 21:37:00,
2013-05-14 17:52:00,73.7,54.0,29.84,NW,306,2.0,4.0,50,0.00,,,0.00,weatherlink.com 1.10,2013-05-14 21:52:00,
2013-05-14 18:07:00,73.7,53.0,29.83,NW,306,0.0,2.0,48,0.00,,,0.00,weatherlink.com 1.10,2013-05-14 22:07:00,
2013-05-14 18:22:00,73.8,55.0,29.81,NW,306,0.0,2.0,52,0.00,,,0.00,weatherlink.com 1.10,2013-05-14 22:22:00,
2013-05-14 18:37:00,74.6,55.0,29.81,NW,306,0.0,2.0,50,0.00,,,0.00,weatherlink.com 1.10,2013-05-14 22:37:00,
2013-05-14 18:52:00,75.6,54.0,29.82,NW,305,0.0,2.0,48,0.00,,,0.00,weatherlink.com 1.10,2013-05-14 22:52:00,
2013-05-14 19:07:00,76.9,54.0,29.81,SSW,204,0.0,3.0,45,0.00,,,0.00,weatherlink.com 1.10,2013-05-14 23:07:00,
2013-05-14 19:22:00,75.9,54.0,29.80,SSW,202,0.0,0.0,46,0.00,,,0.00,weatherlink.com 1.10,2013-05-14 23:22:00,
2013-05-14 19:37:00,74.0,54.0,29.80,SSW,202,0.0,1.0,50,0.00,,,0.00,weatherlink.com 1.10,2013-05-14 23:37:00,
2013-05-14 19:52:00,73.3,54.0,29.80,SSW,202,0.0,1.0,52,0.00,,,0.00,weatherlink.com 1.10,2013-05-14 23:52:00,
2013-05-14 20:07:00,71.7,55.0,29.80,SSW,202,0.0,1.0,55,0.00,,,0.00,weatherlink.com 1.10,2013-05-15 00:07:00,
2013-05-14 20:22:00,70.2,54.0,29.80,SSW,202,0.0,0.0,56,0.00,,,0.00,weatherlink.com 1.10,2013-05-15 00:22:00,
2013-05-14 20:37:00,68.6,53.0,29.80,SSW,202,0.0,0.0,58,0.00,,,0.00,weatherlink.com 1.10,2013-05-15 00:37:00,
2013-05-14 20:52:00,67.6,54.0,29.80,SSW,202,0.0,1.0,61,0.00,,,0.00,weatherlink.com 1.10,2013-05-15 00:52:00,
2013-05-14 21:07:00,67.0,53.0,29.79,SSW,202,1.0,1.0,62,0.00,,,0.00,weatherlink.com 1.10,2013-05-15 01:07:00,
2013-05-14 21:22:00,66.4,54.0,29.78,SSW,202,2.0,2.0,64,0.00,,,0.00,weatherlink.com 1.10,2013-05-15 01:22:00,
2013-05-14 21:37:00,66.3,54.0,29.78,East,96,3.0,7.0,64,0.00,,,0.00,weatherlink.com 1.10,2013-05-15 01:37:00,
2013-05-14 21:52:00,65.0,54.0,29.78,ESE,107,1.0,3.0,67,0.00,,,0.00,weatherlink.com 1.10,2013-05-15 01:52:00,
2013-05-14 22:07:00,64.2,52.0,29.78,East,90,1.0,5.0,64,0.00,,,0.00,weatherlink.com 1.10,2013-05-15 02:07:00,
2013-05-14 22:22:00,63.7,52.0,29.79,ENE,78,0.0,2.0,66,0.00,,,0.00,weatherlink.com 1.10,2013-05-15 02:22:00,
2013-05-14 22:37:00,62.9,52.0,29.81,ENE,78,0.0,2.0,68,0.00,,,0.00,weatherlink.com 1.10,2013-05-15 02:37:00,
2013-05-14 22:52:00,62.3,50.0,29.82,ENE,62,0.0,5.0,65,0.00,,,0.00,weatherlink.com 1.10,2013-05-15 02:52:00,
2013-05-14 23:07:00,61.6,50.0,29.80,South,171,0.0,3.0,65,0.00,,,0.00,weatherlink.com 1.10,2013-05-15 03:07:00,
2013-05-14 23:22:00,60.7,50.0,29.80,East,82,1.0,3.0,67,0.00,,,0.00,weatherlink.com 1.10,2013-05-15 03:22:00,
2013-05-14 23:37:00,59.9,49.0,29.80,East,88,0.0,5.0,68,0.00,,,0.00,weatherlink.com 1.10,2013-05-15 03:37:00,
2013-05-14 23:52:00,59.2,49.0,29.79,East,93,2.0,4.0,70,0.00,,,0.00,weatherlink.com 1.10,2013-05-15 03:52:00,